Time;durP1;ratioP1;P1;durP2;ratioP2;P2;SDS_P1;SDS_P2;PMS_P1;PMS_P2;Temp;Humidity;BMP_temperature;BMP_pressure;BME280_temperature;BME280_humidity;BME280_pressure;Samples;Min_cycle;Max_cycle;Signal;HPM_P1;HPM_P2
2023/06/13 00:01:58;;;;;;;1999.90;999.90;;;;;;;14.85;100.00;97655.63;5011327;28;20022;-77
2023/06/13 00:04:23;;;;;;;1999.90;999.90;;;;;;;14.84;100.00;97665.88;5011198;28;20028;-78
2023/06/13 00:06:56;;;;;;;1999.90;999.90;;;;;;;14.93;100.00;97669.38;5011689;28;20467;-79
2023/06/13 00:09:23;;;;;;;1999.90;999.90;;;;;;;14.95;100.00;97664.34;5011019;28;20018;-77
2023/06/13 00:11:51;;;;;;;1999.90;999.90;;;;;;;14.96;100.00;97660.47;5011129;28;20022;-77
2023/06/13 00:14:19;;;;;;;1999.90;999.90;;;;;;;14.89;100.00;97660.16;5010837;28;20041;-78
2023/06/13 00:16:47;;;;;;;1999.90;999.90;;;;;;;14.86;100.00;97660.00;4993472;28;20029;-79
2023/06/13 00:19:13;;;;;;;1999.90;999.90;;;;;;;14.93;100.00;97658.38;5012205;28;20041;-80
2023/06/13 00:21:39;;;;;;;1999.90;999.90;;;;;;;14.97;100.00;97659.31;5024841;28;20033;-81
2023/06/13 00:24:05;;;;;;;1999.90;999.90;;;;;;;15.00;100.00;97655.09;5013130;28;20473;-79
2023/06/13 00:26:30;;;;;;;1999.90;999.90;;;;;;;14.92;100.00;97653.19;4993600;28;20030;-79
2023/06/13 00:28:56;;;;;;;1999.90;999.90;;;;;;;14.90;100.00;97649.97;5010728;28;20034;-80
2023/06/13 00:31:21;;;;;;;1999.90;999.90;;;;;;;14.82;100.00;97640.59;5011007;28;20029;-78
2023/06/13 00:33:50;;;;;;;1999.90;999.90;;;;;;;14.83;100.00;97635.88;5010647;28;20116;-79
2023/06/13 00:36:19;;;;;;;1999.90;999.90;;;;;;;14.87;100.00;97636.84;5011285;28;20042;-77
2023/06/13 00:38:47;;;;;;;1999.90;999.90;;;;;;;14.93;100.00;97639.09;4993252;28;20120;-78
2023/06/13 00:41:13;;;;;;;1999.90;999.90;;;;;;;14.89;100.00;97642.81;5010947;28;20030;-78
2023/06/13 00:43:38;;;;;;;1999.90;999.90;;;;;;;14.86;100.00;97638.78;5010828;28;20394;-77
2023/06/13 00:46:03;;;;;;;1999.90;999.90;;;;;;;14.74;100.00;97624.91;4993071;28;20053;-79
2023/06/13 00:48:29;;;;;;;1999.90;999.90;;;;;;;14.61;100.00;97625.94;5010796;28;20049;-80
2023/06/13 00:50:55;;;;;;;1999.90;999.90;;;;;;;14.63;100.00;97640.16;4993013;28;20483;-78
2023/06/13 00:53:21;;;;;;;1999.90;999.90;;;;;;;14.58;100.00;97632.09;4992946;28;20029;-77
2023/06/13 00:55:47;;;;;;;1999.90;999.90;;;;;;;14.53;100.00;97631.47;5010663;28;20053;-79
2023/06/13 00:58:13;;;;;;;1999.90;999.90;;;;;;;14.54;100.00;97631.13;5010546;28;20087;-79
2023/06/13 01:00:40;;;;;;;1999.90;999.90;;;;;;;14.47;100.00;97619.84;5010692;28;20131;-78
2023/06/13 01:03:15;;;;;;;1999.90;999.90;;;;;;;14.32;100.00;97623.88;5010682;28;20108;-76
2023/06/13 01:05:44;;;;;;;1999.90;999.90;;;;;;;14.35;100.00;97626.00;4993470;28;20029;-78
2023/06/13 01:08:23;;;;;;;1999.90;999.90;;;;;;;14.24;100.00;97615.66;5010515;28;20414;-79
2023/06/13 01:10:53;;;;;;;1999.90;999.90;;;;;;;14.30;100.00;97626.16;4992993;28;20028;-77
2023/06/13 01:13:29;;;;;;;1999.90;999.90;;;;;;;14.31;100.00;97621.47;5010597;28;20034;-77
2023/06/13 01:16:02;;;;;;;1999.90;999.90;;;;;;;14.32;100.00;97618.38;5010623;28;20368;-78
2023/06/13 01:18:33;;;;;;;1999.90;999.90;;;;;;;14.21;100.00;97613.56;4992987;28;20022;-78
2023/06/13 01:21:00;;;;;;;1999.90;999.90;;;;;;;14.31;100.00;97616.78;4993078;28;20022;-78
2023/06/13 01:23:40;;;;;;;1999.90;999.90;;;;;;;14.31;100.00;97613.22;5010932;28;20387;-78
2023/06/13 01:26:33;;;;;;;1999.90;999.90;;;;;;;14.19;100.00;97611.13;4992847;28;20077;-77
2023/06/13 01:29:00;;;;;;;1999.90;999.90;;;;;;;14.19;100.00;97610.34;5010431;28;20037;-78
2023/06/13 01:31:26;;;;;;;1999.90;999.90;;;;;;;14.16;100.00;97611.00;4992983;28;20026;-78
2023/06/13 01:33:54;;;;;;;1999.90;999.90;;;;;;;14.15;100.00;97609.38;4992471;28;20625;-79
2023/06/13 01:36:20;;;;;;;1999.90;999.90;;;;;;;14.23;100.00;97614.03;5010728;28;20040;-77
2023/06/13 01:38:46;;;;;;;1999.90;999.90;;;;;;;14.19;100.00;97610.34;4994192;28;20061;-78
2023/06/13 01:41:12;;;;;;;1999.90;999.90;;;;;;;14.12;100.00;97607.28;4996605;28;20040;-78
2023/06/13 01:43:37;;;;;;;1999.90;999.90;;;;;;;14.10;100.00;97604.03;4996073;28;20025;-78
2023/06/13 01:46:29;;;;;;;1999.90;999.90;;;;;;;14.01;100.00;97598.53;5013828;28;20088;-79
2023/06/13 01:49:12;;;;;;;1999.90;999.90;;;;;;;14.00;100.00;97605.19;5014214;28;20064;-77
2023/06/13 01:51:55;;;;;;;1999.90;999.90;;;;;;;13.89;100.00;97593.72;4996357;28;20557;-77
2023/06/13 01:54:23;;;;;;;1999.90;999.90;;;;;;;13.95;100.00;97603.41;5013840;28;20037;-79
2023/06/13 01:56:53;;;;;;;1999.90;999.90;;;;;;;14.04;100.00;97595.13;5014678;28;20491;-79
2023/06/13 01:59:23;;;;;;;1999.90;999.90;;;;;;;13.95;100.00;97597.91;4997502;28;20026;-80
2023/06/13 02:01:50;;;;;;;1999.90;999.90;;;;;;;13.85;100.00;97592.75;4997273;28;20033;-79
2023/06/13 02:04:15;;;;;;;1999.90;999.90;;;;;;;13.86;100.00;97588.88;5015644;28;20030;-78
2023/06/13 02:06:40;;;;;;;1999.90;999.90;;;;;;;14.01;100.00;97594.97;4996396;28;20128;-78
2023/06/13 02:09:06;;;;;;;1999.90;999.90;;;;;;;13.93;100.00;97600.19;5013758;28;20033;-78
2023/06/13 02:11:32;;;;;;;1999.90;999.90;;;;;;;13.84;100.00;97595.84;4996332;28;20029;-78
2023/06/13 02:13:57;;;;;;;1999.90;999.90;;;;;;;13.72;100.00;97582.72;4996046;28;20475;-81
2023/06/13 02:16:29;;;;;;;1999.90;999.90;;;;;;;13.76;100.00;97596.63;4995901;28;20045;-79
2023/06/13 02:18:55;;;;;;;1999.90;999.90;;;;;;;13.69;100.00;97588.88;5013983;28;20209;-77
2023/06/13 02:21:22;;;;;;;1999.90;999.90;;;;;;;13.69;100.00;97604.59;5013725;28;20127;-77
2023/06/13 02:23:47;;;;;;;1999.90;999.90;;;;;;;13.63;100.00;97594.84;5015362;28;20038;-78
2023/06/13 02:26:13;;;;;;;1999.90;999.90;;;;;;;13.58;100.00;97598.59;5005241;28;20022;-79
2023/06/13 02:28:38;;;;;;;1999.90;999.90;;;;;;;13.62;100.00;97594.06;5002686;28;20574;-78
2023/06/13 02:31:04;;;;;;;1999.90;999.90;;;;;;;13.60;100.00;97596.31;5024942;28;20044;-80
2023/06/13 02:33:32;;;;;;;1999.90;999.90;;;;;;;13.62;100.00;97594.06;5006441;28;20783;-77
2023/06/13 02:35:57;;;;;;;1999.90;999.90;;;;;;;13.61;100.00;97588.88;5002429;28;20038;-79
2023/06/13 02:38:23;;;;;;;1999.90;999.90;;;;;;;13.68;100.00;97591.97;5003100;28;20084;-80
2023/06/13 02:40:48;;;;;;;1999.90;999.90;;;;;;;13.62;100.00;97582.25;4997895;28;20045;-79
2023/06/13 02:43:14;;;;;;;1999.90;999.90;;;;;;;13.58;100.00;97579.34;4995529;28;20030;-81
2023/06/13 02:45:39;;;;;;;1999.90;999.90;;;;;;;13.54;100.00;97591.28;4993168;28;20037;-77
2023/06/13 02:48:05;;;;;;;1999.90;999.90;;;;;;;13.46;100.00;97584.69;4993144;28;20033;-79
2023/06/13 02:50:30;;;;;;;1999.90;999.90;;;;;;;13.53;100.00;97593.25;4992054;28;20029;-77
2023/06/13 02:52:55;;;;;;;1999.90;999.90;;;;;;;13.53;100.00;97596.00;4992757;28;20026;-77
2023/06/13 02:55:21;;;;;;;1999.90;999.90;;;;;;;13.57;100.00;97594.22;4991700;28;20538;-79
2023/06/13 02:57:46;;;;;;;1999.90;999.90;;;;;;;13.58;100.00;97587.59;4992607;28;20034;-78
2023/06/13 03:00:15;;;;;;;1999.90;999.90;;;;;;;13.59;100.00;97589.22;4991373;28;20026;-78
2023/06/13 03:02:43;;;;;;;1999.90;999.90;;;;;;;13.59;100.00;97589.22;4992858;28;20033;-78
2023/06/13 03:05:10;;;;;;;1999.90;999.90;;;;;;;13.64;100.00;97591.78;4991755;28;20384;-80
2023/06/13 03:07:36;;;;;;;1999.90;999.90;;;;;;;13.65;100.00;97587.91;4993092;28;20030;-77
2023/06/13 03:10:03;;;;;;;1999.90;999.90;;;;;;;13.65;100.00;97590.66;4991864;28;20030;-78
2023/06/13 03:12:29;;;;;;;1999.90;999.90;;;;;;;13.58;100.00;97584.84;4992868;28;20221;-78
2023/06/13 03:14:55;;;;;;;1999.90;999.90;;;;;;;13.53;100.00;97574.03;4992859;28;20500;-80
2023/06/13 03:17:21;;;;;;;1999.90;999.90;;;;;;;13.53;100.00;97585.03;4992509;28;20385;-80
2023/06/13 03:19:46;;;;;;;1999.90;999.90;;;;;;;13.54;100.00;97583.06;4974379;28;20070;-79
2023/06/13 03:22:13;;;;;;;1999.90;999.90;;;;;;;13.57;100.00;97583.22;4954092;28;20023;-78
2023/06/13 03:24:42;;;;;;;1999.90;999.90;;;;;;;13.54;100.00;97583.88;4959187;28;20053;-80
2023/06/13 03:27:09;;;;;;;1999.90;999.90;;;;;;;13.69;100.00;97577.88;4972710;28;20046;-79
2023/06/13 03:29:35;;;;;;;1999.90;999.90;;;;;;;14.14;100.00;97585.75;4971001;28;20397;-80
2023/06/13 03:32:00;;;;;;;1999.90;999.90;;;;;;;14.48;100.00;97589.22;4971038;28;20039;-78
2023/06/13 03:34:28;;;;;;;1999.90;999.90;;;;;;;14.92;100.00;97598.91;4970735;28;20042;-80
2023/06/13 03:36:53;;;;;;;1999.90;999.90;;;;;;;15.43;100.00;97592.28;4964961;28;20031;-78
2023/06/13 03:39:19;;;;;;;1999.90;999.90;;;;;;;15.71;100.00;97591.75;4953158;28;20507;-78
2023/06/13 03:41:44;;;;;;;1999.90;999.90;;;;;;;15.91;100.00;97591.72;4952902;28;20027;-79
2023/06/13 03:44:10;;;;;;;1999.90;999.90;;;;;;;16.11;100.00;97601.09;4951798;28;20053;-81
2023/06/13 03:46:36;;;;;;;1999.90;999.90;;;;;;;16.34;100.00;97593.25;4951782;28;20358;-81
2023/06/13 03:49:02;;;;;;;1999.90;999.90;;;;;;;16.78;100.00;97597.16;4952962;28;20061;-79
2023/06/13 03:51:27;;;;;;;1999.90;999.90;;;;;;;17.10;100.00;97605.31;4952941;28;20106;-79
2023/06/13 03:53:52;;;;;;;1999.90;999.90;;;;;;;17.59;100.00;97600.56;4952809;28;20027;-80
2023/06/13 03:56:18;;;;;;;1999.90;999.90;;;;;;;18.03;100.00;97597.88;4952627;28;20089;-78
2023/06/13 03:58:43;;;;;;;1999.90;999.90;;;;;;;17.91;100.00;97600.69;4951457;28;20485;-79
2023/06/13 04:01:10;;;;;;;1999.90;999.90;;;;;;;18.08;100.00;97608.69;4952389;28;20031;-79
2023/06/13 04:03:39;;;;;;;1999.90;999.90;;;;;;;18.16;100.00;97611.31;4951319;28;20493;-81
2023/06/13 04:06:05;;;;;;;1999.90;999.90;;;;;;;18.54;100.00;97626.63;4951781;28;20497;-79
2023/06/13 04:08:30;;;;;;;1999.90;999.90;;;;;;;17.99;100.00;97613.56;4955039;28;20035;-80
2023/06/13 04:10:56;;;;;;;1999.90;999.90;;;;;;;18.55;100.00;97625.44;4954337;28;20039;-80
2023/06/13 04:13:21;;;;;;;1999.90;999.90;;;;;;;18.23;100.00;97629.28;4958264;28;20035;-83
2023/06/13 04:15:47;;;;;;;1999.90;999.90;;;;;;;17.80;100.00;97628.03;4972086;28;20042;-79
2023/06/13 04:18:17;;;;;;;1999.90;999.90;;;;;;;17.29;100.00;97623.28;4970748;28;20499;-80
2023/06/13 04:20:43;;;;;;;1999.90;999.90;;;;;;;16.94;100.00;97629.28;4971258;28;20085;-80
2023/06/13 04:23:09;;;;;;;1999.90;999.90;;;;;;;16.72;100.00;97607.63;4971659;28;20031;-81
2023/06/13 04:25:35;;;;;;;1999.90;999.90;;;;;;;16.78;100.00;97622.81;4970535;28;20034;-80
2023/06/13 04:28:02;;;;;;;1999.90;999.90;;;;;;;16.48;100.00;97618.56;4971741;28;20041;-80
2023/06/13 04:30:28;;;;;;;1999.90;999.90;;;;;;;16.37;100.00;97617.41;4971438;28;20026;-81
2023/06/13 04:32:56;;;;;;;1999.90;999.90;;;;;;;16.30;100.00;97614.38;4971681;28;20361;-81
2023/06/13 04:35:22;;;;;;;1999.90;999.90;;;;;;;16.39;100.00;97618.69;4984734;28;20132;-81
2023/06/13 04:37:48;;;;;;;1999.90;999.90;;;;;;;16.38;100.00;97616.28;4994164;28;20058;-80
2023/06/13 04:40:14;;;;;;;1999.90;999.90;;;;;;;16.38;100.00;97624.56;5004665;28;20026;-82
2023/06/13 04:42:47;;;;;;;1999.90;999.90;;;;;;;16.46;100.00;97629.16;4974968;28;20026;-79
2023/06/13 04:45:13;;;;;;;1999.90;999.90;;;;;;;16.71;100.00;97627.28;4991213;28;20057;-81
2023/06/13 04:47:39;;;;;;;1999.90;999.90;;;;;;;17.08;100.00;97620.63;4991194;28;20026;-84
2023/06/13 04:50:06;;;;;;;1999.90;999.90;;;;;;;17.18;100.00;97617.41;4991556;28;20105;-81
2023/06/13 04:52:32;;;;;;;1999.90;999.90;;;;;;;17.04;100.00;97633.56;4991379;28;20023;-81
2023/06/13 04:55:00;;;;;;;1999.90;999.90;;;;;;;17.02;100.00;97635.84;4973745;28;20192;-81
2023/06/13 04:57:26;;;;;;;1999.90;999.90;;;;;;;17.17;100.00;97634.31;4991550;28;20524;-82
2023/06/13 04:59:51;;;;;;;1999.90;999.90;;;;;;;17.20;100.00;97625.38;4991954;28;20109;-82
2023/06/13 05:02:17;;;;;;;1999.90;999.90;;;;;;;17.41;100.00;97631.56;4991772;28;20022;-79
2023/06/13 05:04:42;;;;;;;1999.90;999.90;;;;;;;17.28;100.00;97639.06;4990695;28;20034;-80
2023/06/13 05:07:07;;;;;;;1999.90;999.90;;;;;;;17.34;100.00;97632.16;4991337;28;20027;-81
2023/06/13 05:09:33;;;;;;;1999.90;999.90;;;;;;;17.37;100.00;97636.16;4993694;28;20038;-83
2023/06/13 05:11:58;;;;;;;1999.90;999.90;;;;;;;17.19;100.00;97634.81;4991701;28;21048;-82
2023/06/13 05:14:24;;;;;;;1999.90;999.90;;;;;;;17.09;100.00;97636.88;4979380;28;20045;-79
2023/06/13 05:16:50;;;;;;;1999.90;999.90;;;;;;;16.89;100.00;97640.53;5019924;28;20037;-78
2023/06/13 05:19:17;;;;;;;1999.90;999.90;;;;;;;17.22;100.00;97651.50;4998497;28;20025;-82
2023/06/13 05:21:43;;;;;;;1999.90;999.90;;;;;;;17.27;100.00;97648.50;5017503;28;20033;-77
2023/06/13 05:24:10;;;;;;;1999.90;999.90;;;;;;;17.21;100.00;97651.84;5007536;28;20034;-83
2023/06/13 05:26:36;;;;;;;1999.90;999.90;;;;;;;17.74;100.00;97634.97;4983076;28;20395;-77
2023/06/13 05:29:05;;;;;;;1999.90;999.90;;;;;;;17.80;100.00;97652.94;5001752;28;20217;-77
2023/06/13 05:31:31;;;;;;;1999.90;999.90;;;;;;;17.53;100.00;97645.38;5003248;28;20105;-75
2023/06/13 05:33:56;;;;;;;1999.90;999.90;;;;;;;17.45;100.00;97643.53;5008353;28;20426;-74
2023/06/13 05:36:22;;;;;;;1999.90;999.90;;;;;;;17.62;100.00;97635.81;4984075;28;20026;-75
2023/06/13 05:38:47;;;;;;;1999.90;999.90;;;;;;;17.83;100.00;97632.88;4986308;28;20395;-80
2023/06/13 05:41:13;;;;;;;1999.90;999.90;;;;;;;17.98;100.00;97629.38;4984090;28;20057;-75
2023/06/13 05:43:39;;;;;;;1999.90;999.90;;;;;;;18.11;100.00;97639.25;5002038;28;20068;-79
2023/06/13 05:46:04;;;;;;;1999.90;999.90;;;;;;;18.06;100.00;97636.75;4981228;28;20117;-78
2023/06/13 05:48:30;;;;;;;1999.90;999.90;;;;;;;18.10;100.00;97629.34;4992907;28;20089;-80
2023/06/13 05:50:55;;;;;;;1999.90;999.90;;;;;;;18.08;100.00;97626.09;4992944;28;20041;-78
2023/06/13 05:53:21;;;;;;;1999.90;999.90;;;;;;;18.13;100.00;97631.41;4992875;28;20112;-79
2023/06/13 05:55:46;;;;;;;1999.90;999.90;;;;;;;18.19;100.00;97627.22;4991998;28;20372;-77
2023/06/13 05:58:12;;;;;;;1999.90;999.90;;;;;;;18.39;100.00;97622.59;4988064;28;20088;-78
2023/06/13 06:00:37;;;;;;;1999.90;999.90;;;;;;;17.77;100.00;97616.88;4990744;28;20038;-75
2023/06/13 06:03:03;;;;;;;1999.90;999.90;;;;;;;18.17;100.00;97610.16;4980932;28;20045;-80
2023/06/13 06:05:29;;;;;;;1999.90;999.90;;;;;;;17.91;100.00;97626.41;4971814;28;20491;-76
2023/06/13 06:07:54;;;;;;;1999.90;999.90;;;;;;;18.23;100.00;97624.53;4978708;28;20041;-76
2023/06/13 06:10:19;;;;;;;1999.90;999.90;;;;;;;18.23;100.00;97626.53;4992696;28;20037;-75
2023/06/13 06:12:45;;;;;;;1999.90;999.90;;;;;;;18.10;100.00;97626.56;4990534;28;20029;-75
2023/06/13 06:15:10;;;;;;;1999.90;999.90;;;;;;;18.03;100.00;97631.09;4991328;28;20034;-76
2023/06/13 06:17:36;;;;;;;1999.90;999.90;;;;;;;18.42;100.00;97626.66;4992554;28;20034;-75
2023/06/13 06:20:03;;;;;;;1999.90;999.90;;;;;;;18.87;100.00;97634.59;4992660;28;20602;-75
2023/06/13 06:22:29;;;;;;;1999.90;999.90;;;;;;;18.94;100.00;97621.72;4991183;28;20384;-77
2023/06/13 06:24:54;;;;;;;1999.90;999.90;;;;;;;18.91;100.00;97633.53;4991896;28;20054;-75
2023/06/13 06:27:20;;;;;;;1999.90;999.90;;;;;;;19.03;100.00;97641.75;4992375;28;20486;-75
2023/06/13 06:29:45;;;;;;;1999.90;999.90;;;;;;;19.45;100.00;97636.44;4974735;28;20440;-75
2023/06/13 06:32:10;;;;;;;1999.90;999.90;;;;;;;19.76;100.00;97643.91;4992650;28;20557;-75
2023/06/13 06:34:36;;;;;;;1999.90;999.90;;;;;;;19.70;100.00;97631.50;4992225;28;20050;-75
2023/06/13 06:37:05;;;;;;;1999.90;999.90;;;;;;;19.68;100.00;97644.91;4992492;28;20034;-76
2023/06/13 06:39:31;;;;;;;1999.90;999.90;;;;;;;19.82;100.00;97653.56;4992627;28;20022;-74
2023/06/13 06:41:56;;;;;;;1999.90;999.90;;;;;;;20.12;100.00;97662.94;4985501;28;20022;-75
2023/06/13 06:44:22;;;;;;;1999.90;999.90;;;;;;;20.24;100.00;97662.00;4992423;28;20419;-76
2023/06/13 06:46:47;;;;;;;1999.90;999.90;;;;;;;20.12;100.00;97671.28;4993305;28;20073;-76
2023/06/13 06:49:16;;;;;;;1999.90;999.90;;;;;;;19.94;100.00;97660.97;4994023;28;20105;-74
2023/06/13 06:51:41;;;;;;;1999.90;999.90;;;;;;;19.93;100.00;97671.25;4990983;28;20021;-76
2023/06/13 06:54:06;;;;;;;1999.90;999.90;;;;;;;19.95;100.00;97657.03;4991966;28;20030;-75
2023/06/13 06:56:32;;;;;;;1999.90;999.90;;;;;;;19.60;100.00;97670.91;4990615;28;20077;-76
2023/06/13 06:58:57;;;;;;;1999.90;999.90;;;;;;;19.60;97.08;97659.81;4990206;28;20030;-75
2023/06/13 07:01:23;;;;;;;1999.90;999.90;;;;;;;19.81;90.87;97660.28;4990463;28;20031;-78
2023/06/13 07:03:48;;;;;;;1999.90;999.90;;;;;;;19.90;88.20;97652.53;4990122;28;20037;-76
2023/06/13 07:06:13;;;;;;;1999.90;999.90;;;;;;;19.69;85.86;97661.22;4991845;28;20035;-77
2023/06/13 07:08:39;;;;;;;1999.90;999.90;;;;;;;19.95;83.60;97663.38;4991579;28;20732;-76
2023/06/13 07:11:04;;;;;;;1999.90;999.90;;;;;;;19.97;78.96;97652.72;4991606;28;20037;-76
2023/06/13 07:13:30;;;;;;;1999.90;999.90;;;;;;;20.48;76.46;97663.72;4991614;28;20026;-75
2023/06/13 07:15:55;;;;;;;1999.90;999.90;;;;;;;20.53;76.05;97655.06;4991450;28;20042;-75
2023/06/13 07:18:21;;;;;;;1999.90;999.90;;;;;;;20.85;76.16;97653.69;4991345;28;20499;-77
2023/06/13 07:20:46;;;;;;;1999.90;999.90;;;;;;;21.14;70.25;97647.50;4990997;28;20026;-74
2023/06/13 07:23:12;;;;;;;1999.90;999.90;;;;;;;20.84;68.13;97650.09;4991508;28;20027;-75
2023/06/13 07:25:40;;;;;;;1999.90;999.90;;;;;;;20.95;69.31;97646.72;4991268;28;20388;-76
2023/06/13 07:28:06;;;;;;;1999.90;999.90;;;;;;;20.77;69.31;97629.69;4991270;28;20069;-75
2023/06/13 07:30:31;;;;;;;1999.90;999.90;;;;;;;20.86;70.40;97646.97;4991182;28;20061;-75
2023/06/13 07:32:57;;;;;;;1999.90;999.90;;;;;;;20.98;69.12;97629.28;4991116;28;20026;-75
2023/06/13 07:35:23;;;;;;;1999.90;999.90;;;;;;;21.13;69.74;97637.53;4969500;28;20051;-76
2023/06/13 07:37:50;;;;;;;1999.90;999.90;;;;;;;20.83;71.23;97623.47;4970452;28;20075;-76
2023/06/13 07:40:16;;;;;;;1999.90;999.90;;;;;;;21.61;67.85;97637.88;4971981;28;20030;-74
2023/06/13 07:42:41;;;;;;;1999.90;999.90;;;;;;;22.11;64.69;97648.56;4971732;28;20039;-76
2023/06/13 07:45:07;;;;;;;1999.90;999.90;;;;;;;22.24;62.21;97646.34;4971662;28;20384;-75
2023/06/13 07:47:34;;;;;;;1999.90;999.90;;;;;;;21.81;62.69;97644.94;4971560;28;20037;-75
2023/06/13 07:49:59;;;;;;;1999.90;999.90;;;;;;;22.13;62.74;97640.63;4971539;28;20033;-75
2023/06/13 07:52:24;;;;;;;1999.90;999.90;;;;;;;22.28;62.69;97630.44;4954196;28;20031;-74
2023/06/13 07:54:49;;;;;;;1999.90;999.90;;;;;;;22.98;57.46;97641.59;4969846;28;20038;-75
2023/06/13 07:57:15;;;;;;;1999.90;999.90;;;;;;;23.25;58.19;97631.88;4971332;28;20377;-77
2023/06/13 07:59:40;;;;;;;1999.90;999.90;;;;;;;25.15;50.21;97631.22;4971345;28;20026;-74
2023/06/13 08:02:06;;;;;;;1999.90;999.90;;;;;;;26.23;45.47;97625.91;4971314;28;20488;-76
2023/06/13 08:04:31;;;;;;;1999.90;999.90;;;;;;;27.00;44.71;97630.31;4971832;28;20322;-79
2023/06/13 08:06:57;;;;;;;1999.90;999.90;;;;;;;27.90;41.05;97639.63;4971746;28;20029;-76
2023/06/13 08:09:23;;;;;;;1999.90;999.90;;;;;;;26.33;43.65;97622.25;4972702;28;20065;-75
2023/06/13 08:11:48;;;;;;;1999.90;999.90;;;;;;;25.93;44.71;97631.19;4973131;28;20416;-77
2023/06/13 08:14:14;;;;;;;1999.90;999.90;;;;;;;25.62;45.67;97623.63;4971127;28;20023;-79
2023/06/13 08:16:39;;;;;;;1999.90;999.90;;;;;;;25.03;48.12;97603.59;4972186;28;20027;-78
2023/06/13 08:19:05;;;;;;;1999.90;999.90;;;;;;;25.38;47.01;97608.41;4971980;28;20062;-79
2023/06/13 08:21:31;;;;;;;1999.90;999.90;;;;;;;24.80;48.41;97609.56;4972061;28;20035;-78
2023/06/13 08:23:59;;;;;;;1999.90;999.90;;;;;;;25.12;49.46;97611.63;4971901;28;20066;-78
2023/06/13 08:26:25;;;;;;;1999.90;999.90;;;;;;;25.96;47.76;97619.16;4970624;28;20037;-78
2023/06/13 08:28:50;;;;;;;1999.90;999.90;;;;;;;26.24;46.73;97613.47;4971894;28;20117;-78
2023/06/13 08:31:17;;;;;;;1999.90;999.90;;;;;;;28.90;40.55;97625.97;4970761;28;20029;-79
2023/06/13 08:33:42;;;;;;;1999.90;999.90;;;;;;;31.53;34.99;97638.25;4971786;28;20767;-78
2023/06/13 08:36:07;;;;;;;1999.90;999.90;;;;;;;31.00;34.98;97635.84;4970393;28;20105;-79
2023/06/13 08:38:33;;;;;;;1999.90;999.90;;;;;;;28.29;37.66;97623.13;4972405;28;20494;-79
2023/06/13 08:40:59;;;;;;;1999.90;999.90;;;;;;;28.36;38.46;97614.59;4970663;28;20281;-77
2023/06/13 08:43:24;;;;;;;1999.90;999.90;;;;;;;27.66;40.46;97602.09;4970500;28;20380;-79
2023/06/13 08:45:50;;;;;;;1999.90;999.90;;;;;;;26.90;42.03;97599.53;4971671;28;20034;-78
2023/06/13 08:48:15;;;;;;;1999.90;999.90;;;;;;;28.62;38.10;97611.06;4974408;28;20045;-78
2023/06/13 08:50:43;;;;;;;1999.90;999.90;;;;;;;31.05;34.11;97615.53;4974459;28;20388;-77
2023/06/13 08:53:10;;;;;;;1999.90;999.90;;;;;;;32.30;31.76;97626.88;4976102;28;20037;-77
2023/06/13 08:55:40;;;;;;;1999.90;999.90;;;;;;;32.68;30.69;97624.19;4984939;28;20134;-79
2023/06/13 08:58:09;;;;;;;1999.90;999.90;;;;;;;32.95;30.62;97625.81;4984619;28;20023;-78
2023/06/13 09:00:35;;;;;;;1999.90;999.90;;;;;;;32.29;30.97;97616.81;4975523;28;20031;-78
2023/06/13 09:03:01;;;;;;;1999.90;999.90;;;;;;;30.71;32.88;97602.56;4975540;28;20019;-78
2023/06/13 09:05:28;;;;;;;1999.90;999.90;;;;;;;30.76;34.03;97602.03;4966886;28;20536;-77
2023/06/13 09:07:56;;;;;;;1999.90;999.90;;;;;;;30.48;33.87;97613.94;4938977;28;20023;-78
2023/06/13 09:10:21;;;;;;;1999.90;999.90;;;;;;;28.13;39.12;97600.44;4956583;28;20030;-78
2023/06/13 09:12:51;;;;;;;1999.90;999.90;;;;;;;28.38;38.25;97588.88;4956422;28;20105;-78
2023/06/13 09:15:17;;;;;;;1999.90;999.90;;;;;;;28.91;37.92;97605.06;4956007;28;20477;-78
2023/06/13 09:17:43;;;;;;;1999.90;999.90;;;;;;;30.64;34.49;97607.56;4956038;28;20031;-78
2023/06/13 09:20:09;;;;;;;1999.90;999.90;;;;;;;29.71;35.91;97602.13;4955974;28;20011;-78
2023/06/13 09:22:37;;;;;;;1999.90;999.90;;;;;;;28.57;38.49;97596.63;4955808;28;20551;-79
2023/06/13 09:25:05;;;;;;;1999.90;999.90;;;;;;;27.82;40.18;97593.09;4954753;28;20038;-78
2023/06/13 09:27:31;;;;;;;1999.90;999.90;;;;;;;24.62;46.82;97568.75;4955724;28;20106;-79
2023/06/13 09:30:03;;;;;;;1999.90;999.90;;;;;;;25.08;46.60;97577.22;4954564;28;20110;-78
2023/06/13 09:32:28;;;;;;;1999.90;999.90;;;;;;;25.85;44.27;97577.13;4954443;28;20015;-79
2023/06/13 09:34:53;;;;;;;1999.90;999.90;;;;;;;25.55;45.63;97576.81;4963004;28;20392;-78
2023/06/13 09:37:20;;;;;;;1999.90;999.90;;;;;;;24.98;46.26;97564.81;4975022;28;20027;-78
2023/06/13 09:39:50;;;;;;;1999.90;999.90;;;;;;;26.06;44.69;97560.22;4975383;28;20058;-78
2023/06/13 09:42:20;;;;;;;1999.90;999.90;;;;;;;27.21;41.17;97573.19;4994192;28;20033;-78
2023/06/13 09:44:46;;;;;;;1999.90;999.90;;;;;;;28.27;38.88;97565.69;4995973;28;20544;-78
2023/06/13 09:47:23;;;;;;;1999.90;999.90;;;;;;;27.19;40.81;97564.38;5013544;28;20042;-78
2023/06/13 09:49:54;;;;;;;1999.90;999.90;;;;;;;25.87;42.94;97557.13;4996213;28;20072;-78
2023/06/13 09:52:26;;;;;;;1999.90;999.90;;;;;;;26.12;42.72;97546.59;5013387;28;20022;-78
2023/06/13 09:54:52;;;;;;;1999.90;999.90;;;;;;;24.51;47.14;97551.94;5014175;28;20104;-79
2023/06/13 09:57:21;;;;;;;1999.90;999.90;;;;;;;24.78;45.55;97549.56;4997332;28;20053;-78
2023/06/13 09:59:48;;;;;;;1999.90;999.90;;;;;;;26.59;41.22;97545.94;5012939;28;20026;-78
2023/06/13 10:02:16;;;;;;;1999.90;999.90;;;;;;;25.01;43.96;97536.03;4995892;28;20471;-77
2023/06/13 10:04:42;;;;;;;1999.90;999.90;;;;;;;25.25;43.88;97543.59;4995925;28;20053;-79
2023/06/13 10:07:07;;;;;;;1999.90;999.90;;;;;;;24.66;44.12;97545.16;5013236;28;20042;-79
2023/06/13 10:09:32;;;;;;;1999.90;999.90;;;;;;;25.64;42.18;97551.16;5013852;28;20121;-79
2023/06/13 10:12:00;;;;;;;1999.90;999.90;;;;;;;26.57;39.78;97556.78;5013282;28;20387;-77
2023/06/13 10:14:27;;;;;;;1999.90;999.90;;;;;;;26.93;38.86;97556.56;4995802;28;20057;-78
2023/06/13 10:16:59;;;;;;;1999.90;999.90;;;;;;;24.19;44.97;97532.28;5013226;28;20030;-78
2023/06/13 10:19:26;;;;;;;1999.90;999.90;;;;;;;24.75;44.73;97531.59;5013275;28;20026;-80
2023/06/13 10:21:52;;;;;;;1999.90;999.90;;;;;;;25.09;45.63;97522.84;4995511;28;20030;-78
2023/06/13 10:24:19;;;;;;;1999.90;999.90;;;;;;;26.60;41.47;97530.72;4995276;28;20030;-79
2023/06/13 10:26:45;;;;;;;1999.90;999.90;;;;;;;25.96;39.84;97532.25;5013247;28;20033;-78
2023/06/13 10:29:23;;;;;;;1999.90;999.90;;;;;;;25.80;40.98;97529.91;5013094;28;20040;-78
2023/06/13 10:32:03;;;;;;;1999.90;999.90;;;;;;;24.66;43.21;97521.97;4995417;28;20036;-79
2023/06/13 10:34:57;;;;;;;1999.90;999.90;;;;;;;25.56;41.51;97525.97;4995051;28;20072;-80
2023/06/13 10:37:31;;;;;;;1999.90;999.90;;;;;;;24.37;44.80;97505.16;4995450;28;20041;-78
2023/06/13 10:40:29;;;;;;;1999.90;999.90;;;;;;;24.96;44.64;97505.66;5013996;28;20041;-78
2023/06/13 10:43:25;;;;;;;1999.90;999.90;;;;;;;24.46;45.16;97497.19;5013759;28;20048;-79
2023/06/13 10:45:53;;;;;;;1999.90;999.90;;;;;;;24.41;44.48;97494.78;5012450;28;20030;-78
2023/06/13 10:48:47;;;;;;;1999.90;999.90;;;;;;;24.14;46.02;97487.97;4995016;28;20491;-79
2023/06/13 10:51:12;;;;;;;1999.90;999.90;;;;;;;24.20;45.02;97479.97;4994881;28;20036;-80